createdAt,value
2018-12-13T00:01:01.196Z,69.04
2018-12-13T00:02:04.410Z,68.43
2018-12-13T00:03:06.849Z,68.58
2018-12-13T00:04:09.363Z,68.80
2018-12-13T00:05:11.807Z,68.39
2018-12-13T00:06:14.281Z,68.72
2018-12-13T00:07:16.735Z,69.10
2018-12-13T00:08:19.168Z,68.76
2018-12-13T00:09:21.611Z,68.74
2018-12-13T00:10:24.048Z,68.86
2018-12-13T00:11:26.499Z,68.75
2018-12-13T00:12:28.947Z,68.96
2018-12-13T00:13:31.388Z,68.47
2018-12-13T00:14:33.823Z,68.49
2018-12-13T00:15:36.258Z,68.72
2018-12-13T00:16:38.716Z,68.92
2018-12-13T00:17:41.163Z,68.89
2018-12-13T00:18:43.595Z,69.45
2018-12-13T00:19:46.031Z,68.93
2018-12-13T00:20:48.493Z,69.00
2018-12-13T00:21:50.949Z,69.05
2018-12-13T00:22:53.412Z,68.41
2018-12-13T00:23:55.872Z,69.01
2018-12-13T00:24:58.315Z,69.01
2018-12-13T00:26:00.749Z,69.02
2018-12-13T00:27:03.289Z,68.90
2018-12-13T00:28:05.972Z,68.81
2018-12-13T00:29:08.424Z,69.70
2018-12-13T00:30:10.860Z,69.47
2018-12-13T00:31:13.292Z,69.26
2018-12-13T00:32:15.794Z,69.31
2018-12-13T00:33:18.242Z,68.91
2018-12-13T00:34:20.697Z,69.44
2018-12-13T00:35:23.128Z,69.00
2018-12-13T00:36:25.572Z,69.52
2018-12-13T00:37:28.028Z,69.03
2018-12-13T00:38:30.483Z,69.55
2018-12-13T00:39:32.932Z,69.03
2018-12-13T00:40:35.402Z,69.02
2018-12-13T00:41:37.833Z,69.53
2018-12-13T00:42:40.283Z,68.92
2018-12-13T00:43:42.736Z,69.55
2018-12-13T00:44:45.175Z,69.31
2018-12-13T00:45:47.631Z,69.23
2018-12-13T00:46:50.089Z,69.55
2018-12-13T00:47:52.555Z,69.48
2018-12-13T00:48:55.036Z,69.24
2018-12-13T00:49:57.502Z,69.18
2018-12-13T00:50:59.955Z,68.97
2018-12-13T00:52:02.405Z,69.27
2018-12-13T00:53:04.871Z,68.94
2018-12-13T00:54:07.355Z,68.68
2018-12-13T00:55:09.800Z,68.97
2018-12-13T00:56:12.251Z,68.98
2018-12-13T00:57:14.688Z,69.57
2018-12-13T00:58:17.144Z,69.19
2018-12-13T00:59:19.595Z,69.36
2018-12-13T01:00:22.070Z,69.04
2018-12-13T01:01:24.523Z,68.92
2018-12-13T01:02:27.082Z,69.39
2018-12-13T01:03:29.547Z,69.45
2018-12-13T01:04:31.991Z,69.38
2018-12-13T01:05:34.435Z,69.37
2018-12-13T01:06:36.872Z,69.65
2018-12-13T01:07:39.334Z,69.58
2018-12-13T01:08:41.771Z,68.95
2018-12-13T01:09:44.289Z,69.18
2018-12-13T01:10:46.745Z,69.46
2018-12-13T01:11:49.175Z,69.35
2018-12-13T01:12:51.631Z,69.11
2018-12-13T01:13:54.102Z,68.91
2018-12-13T01:14:56.626Z,69.44
2018-12-13T01:15:59.067Z,69.17
2018-12-13T01:17:01.506Z,68.86
2018-12-13T01:18:03.965Z,69.06
2018-12-13T01:19:06.395Z,69.01
2018-12-13T01:20:08.823Z,69.72
2018-12-13T01:21:11.278Z,69.62
2018-12-13T01:22:13.749Z,69.63
2018-12-13T01:23:16.216Z,69.83
2018-12-13T01:24:18.679Z,69.27
2018-12-13T01:25:21.124Z,69.89
2018-12-13T01:26:23.567Z,69.83
2018-12-13T01:27:26.005Z,69.38
2018-12-13T01:28:28.470Z,69.81
2018-12-13T01:29:30.938Z,69.44
2018-12-13T01:30:33.377Z,69.61
2018-12-13T01:31:35.826Z,69.41
2018-12-13T01:32:38.263Z,69.38
2018-12-13T01:33:40.750Z,69.51
2018-12-13T01:34:43.205Z,69.13
2018-12-13T01:35:45.652Z,69.26
2018-12-13T01:36:52.409Z,69.18
2018-12-13T01:37:52.555Z,69.52
2018-12-13T01:38:55.014Z,70.01
2018-12-13T01:39:57.465Z,69.41
2018-12-13T01:41:00.023Z,69.71
2018-12-13T01:42:02.469Z,69.20
2018-12-13T01:43:04.925Z,68.98
2018-12-13T01:44:07.377Z,69.42
2018-12-13T01:45:09.923Z,69.52
2018-12-13T01:46:12.371Z,69.58
2018-12-13T01:47:14.825Z,68.98
2018-12-13T01:48:17.275Z,69.56
2018-12-13T01:49:19.738Z,69.69
2018-12-13T01:50:22.202Z,69.99
2018-12-13T01:51:24.643Z,69.36
2018-12-13T01:52:27.085Z,69.43
2018-12-13T01:53:29.526Z,69.51
2018-12-13T01:54:31.983Z,69.65
2018-12-13T01:55:34.447Z,69.55
2018-12-13T01:56:36.997Z,69.06
2018-12-13T01:57:39.431Z,69.25
2018-12-13T01:58:41.871Z,68.77
2018-12-13T01:59:44.329Z,69.46
2018-12-13T02:00:46.768Z,69.05
2018-12-13T02:01:49.216Z,69.52
2018-12-13T02:02:51.648Z,69.44
2018-12-13T02:03:54.100Z,69.41
2018-12-13T02:04:56.556Z,68.90
2018-12-13T02:05:59.019Z,69.59
2018-12-13T02:07:01.463Z,69.37
2018-12-13T02:08:03.924Z,69.03
2018-12-13T02:09:06.738Z,68.90
2018-12-13T02:10:09.294Z,68.99
2018-12-13T02:11:11.776Z,69.28
2018-12-13T02:12:14.225Z,69.46
2018-12-13T02:13:16.693Z,68.84
2018-12-13T02:14:19.123Z,68.48
2018-12-13T02:15:21.587Z,68.15
2018-12-13T02:16:24.023Z,68.60
2018-12-13T02:17:26.465Z,68.48
2018-12-13T02:18:28.911Z,68.08
2018-12-13T02:19:31.345Z,67.60
2018-12-13T02:20:33.804Z,68.42
2018-12-13T02:21:36.268Z,67.83
2018-12-13T02:22:38.704Z,67.37
2018-12-13T02:23:41.161Z,67.66
2018-12-13T02:24:43.614Z,67.72
2018-12-13T02:25:46.071Z,67.54
2018-12-13T02:26:48.519Z,67.76
2018-12-13T02:27:50.970Z,68.21
2018-12-13T02:28:53.418Z,68.30
2018-12-13T02:29:55.859Z,67.28
2018-12-13T02:30:58.305Z,67.44
2018-12-13T02:32:00.765Z,67.56
2018-12-13T02:33:03.191Z,67.22
2018-12-13T02:34:05.633Z,66.90
2018-12-13T02:35:08.086Z,67.10
2018-12-13T02:36:10.532Z,67.53
2018-12-13T02:37:12.987Z,66.85
2018-12-13T02:38:15.430Z,67.03
2018-12-13T02:39:17.860Z,67.42
2018-12-13T02:40:20.295Z,67.00
2018-12-13T02:41:22.795Z,66.96
2018-12-13T02:42:25.221Z,66.82
2018-12-13T02:43:27.659Z,66.72
2018-12-13T02:44:30.108Z,66.57
2018-12-13T02:45:32.651Z,67.20
2018-12-13T02:46:35.125Z,66.76
2018-12-13T02:47:37.582Z,67.13
2018-12-13T02:48:40.019Z,67.04
2018-12-13T02:49:42.484Z,67.01
2018-12-13T02:50:44.928Z,67.43
2018-12-13T02:51:47.411Z,67.29
2018-12-13T02:52:49.857Z,67.10
2018-12-13T02:53:52.305Z,67.12
2018-12-13T02:54:54.740Z,67.33
2018-12-13T02:55:57.167Z,67.17
2018-12-13T02:56:59.610Z,67.39
2018-12-13T02:58:02.078Z,67.22
2018-12-13T02:59:04.526Z,67.29
2018-12-13T03:00:07.044Z,66.81
2018-12-13T03:01:09.483Z,67.20
2018-12-13T03:02:11.939Z,67.31
2018-12-13T03:03:14.376Z,66.90
2018-12-13T03:04:16.811Z,67.17
2018-12-13T03:05:19.319Z,67.24
2018-12-13T03:06:21.760Z,66.71
2018-12-13T03:07:24.212Z,66.83
2018-12-13T03:08:26.686Z,67.02
2018-12-13T03:09:29.152Z,66.89
2018-12-13T03:10:31.597Z,66.57
2018-12-13T03:11:34.047Z,66.50
2018-12-13T03:12:36.504Z,66.72
2018-12-13T03:13:38.969Z,67.04
2018-12-13T03:14:41.404Z,66.74
2018-12-13T03:15:43.836Z,67.01
2018-12-13T03:16:46.360Z,66.53
2018-12-13T03:17:48.822Z,66.88
2018-12-13T03:18:51.260Z,67.24
2018-12-13T03:19:53.692Z,66.40
2018-12-13T03:20:56.147Z,67.05
2018-12-13T03:21:58.587Z,66.72
2018-12-13T03:23:01.147Z,67.25
2018-12-13T03:24:03.583Z,67.20
2018-12-13T03:25:06.122Z,67.36
2018-12-13T03:26:08.606Z,67.37
2018-12-13T03:27:11.050Z,67.29
2018-12-13T03:28:13.501Z,67.53
2018-12-13T03:29:15.967Z,67.38
2018-12-13T03:30:18.404Z,67.19
2018-12-13T03:31:20.897Z,67.08
2018-12-13T03:32:23.347Z,67.48
2018-12-13T03:33:25.809Z,67.31
2018-12-13T03:34:28.342Z,66.95
2018-12-13T03:35:30.838Z,67.32
2018-12-13T03:36:33.351Z,67.21
2018-12-13T03:37:35.797Z,66.87
2018-12-13T03:38:38.285Z,66.87
2018-12-13T03:39:40.771Z,66.88
2018-12-13T03:40:43.229Z,67.45
2018-12-13T03:41:45.683Z,67.22
2018-12-13T03:42:48.147Z,67.50
2018-12-13T03:43:50.628Z,67.06
2018-12-13T03:44:53.185Z,67.46
2018-12-13T03:45:55.628Z,66.93
2018-12-13T03:46:58.076Z,66.76
2018-12-13T03:48:00.543Z,66.56
2018-12-13T03:49:03.080Z,67.12
2018-12-13T03:50:05.684Z,66.42
2018-12-13T03:51:08.265Z,66.73
2018-12-13T03:52:10.711Z,67.13
2018-12-13T03:53:13.199Z,66.53
2018-12-13T03:54:15.692Z,67.16
2018-12-13T03:55:18.160Z,66.57
2018-12-13T03:56:20.604Z,66.60
2018-12-13T03:57:23.068Z,66.77
2018-12-13T03:58:25.508Z,66.89
2018-12-13T03:59:28.005Z,67.18
2018-12-13T04:00:30.492Z,66.87
2018-12-13T04:01:32.950Z,66.86
2018-12-13T04:02:35.421Z,67.02
2018-12-13T04:03:37.908Z,66.42
2018-12-13T04:04:40.376Z,66.39
2018-12-13T04:05:42.882Z,66.40
2018-12-13T04:06:45.362Z,66.12
2018-12-13T04:07:47.823Z,66.89
2018-12-13T04:08:50.267Z,66.54
2018-12-13T04:09:52.754Z,66.35
2018-12-13T04:10:55.259Z,66.21
2018-12-13T04:11:57.774Z,66.44
2018-12-13T04:13:00.291Z,67.20
2018-12-13T04:14:02.739Z,66.94
2018-12-13T04:15:05.354Z,66.81
2018-12-13T04:16:07.872Z,66.94
2018-12-13T04:17:11.230Z,66.60
2018-12-13T04:18:13.680Z,67.32
2018-12-13T04:19:16.154Z,67.20
2018-12-13T04:20:18.630Z,66.96
2018-12-13T04:21:21.092Z,66.37
2018-12-13T04:22:23.540Z,66.45
2018-12-13T04:23:25.984Z,66.78
2018-12-13T04:24:29.317Z,66.98
2018-12-13T04:25:31.774Z,67.43
2018-12-13T04:26:34.223Z,67.52
2018-12-13T04:27:36.702Z,67.74
2018-12-13T04:28:39.134Z,67.15
2018-12-13T04:29:41.576Z,67.54
2018-12-13T04:30:44.039Z,66.75
2018-12-13T04:31:46.490Z,66.65
2018-12-13T04:32:48.927Z,67.09
2018-12-13T04:33:51.626Z,67.13
2018-12-13T04:34:54.065Z,67.24
2018-12-13T04:35:56.520Z,67.36
2018-12-13T04:36:58.974Z,67.14
2018-12-13T04:38:01.530Z,67.14
2018-12-13T04:39:06.167Z,67.35
2018-12-13T04:40:08.667Z,67.20
2018-12-13T04:41:11.127Z,67.34
2018-12-13T04:42:13.564Z,67.31
2018-12-13T04:43:16.008Z,67.36
2018-12-13T04:44:18.465Z,66.75
2018-12-13T04:45:20.908Z,66.82
2018-12-13T04:46:23.375Z,66.91
2018-12-13T04:47:25.847Z,66.63
2018-12-13T04:48:28.278Z,67.24
2018-12-13T04:49:30.708Z,67.64
2018-12-13T04:50:33.149Z,67.29
2018-12-13T04:51:35.601Z,66.96
2018-12-13T04:52:38.072Z,67.11
2018-12-13T04:53:40.521Z,66.95
2018-12-13T04:54:42.971Z,66.70
2018-12-13T04:55:45.421Z,67.25
2018-12-13T04:56:47.881Z,67.04
2018-12-13T04:57:50.314Z,66.99
2018-12-13T04:58:52.755Z,67.04
2018-12-13T04:59:55.193Z,66.89
2018-12-13T05:00:57.634Z,67.46
2018-12-13T05:02:00.087Z,66.70
2018-12-13T05:03:02.580Z,66.71
2018-12-13T05:04:05.029Z,67.20
2018-12-13T05:05:07.479Z,66.52
2018-12-13T05:06:09.918Z,66.27
2018-12-13T05:07:12.387Z,66.81
2018-12-13T05:08:14.857Z,66.45
2018-12-13T05:09:17.290Z,66.79
2018-12-13T05:10:31.745Z,66.81
2018-12-13T05:11:34.178Z,66.47
2018-12-13T05:12:36.635Z,67.43
2018-12-13T05:13:39.089Z,66.87
2018-12-13T05:14:41.547Z,67.14
2018-12-13T05:15:43.983Z,67.09
2018-12-13T05:16:46.863Z,67.58
2018-12-13T05:17:49.358Z,67.58
2018-12-13T05:18:51.836Z,67.61
2018-12-13T05:19:54.277Z,67.68
2018-12-13T05:20:56.788Z,66.80
2018-12-13T05:21:59.227Z,67.07
2018-12-13T05:23:01.722Z,67.08
2018-12-13T05:24:04.146Z,67.30
2018-12-13T05:25:06.673Z,67.26
2018-12-13T05:26:09.109Z,67.50
2018-12-13T05:27:11.574Z,67.17
2018-12-13T05:28:14.041Z,67.46
2018-12-13T05:29:16.512Z,66.88
2018-12-13T05:30:18.974Z,67.25
2018-12-13T05:31:21.415Z,67.37
2018-12-13T05:32:23.863Z,67.71
2018-12-13T05:33:26.324Z,67.43
2018-12-13T05:34:28.779Z,67.74
2018-12-13T05:35:31.211Z,67.70
2018-12-13T05:36:33.692Z,66.69
2018-12-13T05:37:36.128Z,66.48
2018-12-13T05:38:38.611Z,66.37
2018-12-13T05:39:41.151Z,67.02
2018-12-13T05:40:43.590Z,67.25
2018-12-13T05:41:46.029Z,67.11
2018-12-13T05:42:48.478Z,66.32
2018-12-13T05:43:53.017Z,67.09
2018-12-13T05:44:55.518Z,66.57
2018-12-13T05:45:57.960Z,66.85
2018-12-13T05:47:00.402Z,67.68
2018-12-13T05:48:02.891Z,66.97
2018-12-13T05:49:05.348Z,67.70
2018-12-13T05:50:07.796Z,67.73
2018-12-13T05:51:10.226Z,67.51
2018-12-13T05:52:12.679Z,67.30
2018-12-13T05:53:15.113Z,67.89
2018-12-13T05:54:17.571Z,67.76
2018-12-13T05:55:20.028Z,67.69
2018-12-13T05:56:22.470Z,68.03
2018-12-13T05:57:24.907Z,67.77
2018-12-13T05:58:27.348Z,67.43
2018-12-13T05:59:29.810Z,67.74
2018-12-13T06:00:32.522Z,67.28
2018-12-13T06:01:34.977Z,67.91
2018-12-13T06:02:37.411Z,67.64
2018-12-13T06:03:39.865Z,67.83
2018-12-13T06:04:42.339Z,68.22
2018-12-13T06:05:44.791Z,67.96
2018-12-13T06:06:47.933Z,67.73
2018-12-13T06:07:54.894Z,68.11
2018-12-13T06:08:55.091Z,68.14
2018-12-13T06:09:57.544Z,68.01
2018-12-13T06:11:00.023Z,68.12
2018-12-13T06:12:02.456Z,68.45
2018-12-13T06:13:04.909Z,67.95
2018-12-13T06:14:07.374Z,67.87
2018-12-13T06:15:09.920Z,67.83
2018-12-13T06:16:12.371Z,67.37
2018-12-13T06:17:14.810Z,67.68
2018-12-13T06:18:17.273Z,67.82
2018-12-13T06:19:19.783Z,67.28
2018-12-13T06:20:22.247Z,68.13
2018-12-13T06:21:24.713Z,67.40
2018-12-13T06:22:27.154Z,68.10
2018-12-13T06:23:29.583Z,67.35
2018-12-13T06:24:32.027Z,67.43
2018-12-13T06:25:34.501Z,68.03
2018-12-13T06:26:37.072Z,67.67
2018-12-13T06:27:39.525Z,67.61
2018-12-13T06:28:41.967Z,67.89
2018-12-13T06:29:48.877Z,67.70
2018-12-13T06:30:48.904Z,67.18
2018-12-13T06:31:51.335Z,67.90
2018-12-13T06:32:53.775Z,67.50
2018-12-13T06:33:56.226Z,67.53
2018-12-13T06:34:58.686Z,67.41
2018-12-13T06:36:01.161Z,67.29
2018-12-13T06:37:03.650Z,67.44
2018-12-13T06:38:06.192Z,67.67
2018-12-13T06:39:08.730Z,67.72
2018-12-13T06:40:15.537Z,67.47
2018-12-13T06:41:15.642Z,67.56
2018-12-13T06:42:18.081Z,68.10
2018-12-13T06:43:24.453Z,68.07
2018-12-13T06:44:26.894Z,67.88
2018-12-13T06:45:29.351Z,68.43
2018-12-13T06:46:31.816Z,68.47
2018-12-13T06:47:34.259Z,68.32
2018-12-13T06:48:36.703Z,68.32
2018-12-13T06:49:39.144Z,68.70
2018-12-13T06:50:41.603Z,68.46
2018-12-13T06:51:44.068Z,68.15
2018-12-13T06:52:46.520Z,68.11
2018-12-13T06:53:48.968Z,68.87
2018-12-13T06:54:51.399Z,68.18
2018-12-13T06:55:53.893Z,67.72
2018-12-13T06:56:56.355Z,68.24
2018-12-13T06:57:58.807Z,67.61
2018-12-13T06:59:01.243Z,68.04
2018-12-13T07:00:05.560Z,68.00
2018-12-13T07:01:08.026Z,68.50
2018-12-13T07:02:10.475Z,68.32
2018-12-13T07:03:12.947Z,68.29
2018-12-13T07:04:15.409Z,68.61
2018-12-13T07:05:17.859Z,68.56
2018-12-13T07:06:20.738Z,67.99
2018-12-13T07:07:23.196Z,68.42
2018-12-13T07:08:25.685Z,68.30
2018-12-13T07:09:28.206Z,68.02
2018-12-13T07:10:30.675Z,68.23
2018-12-13T07:11:33.150Z,69.02
2018-12-13T07:12:35.639Z,68.51
2018-12-13T07:13:38.105Z,68.56
2018-12-13T07:14:40.710Z,68.52
2018-12-13T07:15:43.192Z,68.82
2018-12-13T07:16:45.656Z,68.83
2018-12-13T07:17:48.393Z,68.52
2018-12-13T07:18:50.836Z,68.28
2018-12-13T07:19:53.314Z,68.90
2018-12-13T07:20:55.775Z,68.78
2018-12-13T07:21:58.273Z,69.05
2018-12-13T07:23:00.758Z,69.46
2018-12-13T07:24:03.287Z,69.54
2018-12-13T07:25:05.835Z,69.27
2018-12-13T07:26:08.271Z,69.91
2018-12-13T07:27:10.746Z,69.46
2018-12-13T07:28:13.249Z,69.44
2018-12-13T07:29:15.715Z,69.76
2018-12-13T07:30:18.151Z,69.59
2018-12-13T07:31:20.600Z,69.81
2018-12-13T07:32:23.053Z,69.08
2018-12-13T07:33:25.518Z,69.04
2018-12-13T07:34:27.950Z,68.62
2018-12-13T07:35:30.414Z,69.11
2018-12-13T07:36:32.878Z,69.13
2018-12-13T07:37:35.464Z,68.99
2018-12-13T07:38:37.948Z,69.35
2018-12-13T07:39:40.403Z,69.02
2018-12-13T07:40:42.966Z,68.30
2018-12-13T07:41:45.436Z,69.16
2018-12-13T07:42:47.932Z,68.95
2018-12-13T07:43:50.394Z,68.83
2018-12-13T07:44:52.838Z,68.72
2018-12-13T07:45:55.296Z,68.51
2018-12-13T07:46:57.736Z,68.85
2018-12-13T07:48:00.201Z,69.40
2018-12-13T07:49:02.675Z,69.26
2018-12-13T07:50:06.894Z,68.87
2018-12-13T07:51:09.339Z,68.96
2018-12-13T07:52:11.779Z,68.38
2018-12-13T07:53:14.237Z,68.72
2018-12-13T07:54:16.756Z,68.59
2018-12-13T07:55:19.204Z,68.51
2018-12-13T07:56:21.672Z,68.61
2018-12-13T07:57:24.123Z,68.14
2018-12-13T07:58:26.672Z,68.91
2018-12-13T07:59:29.137Z,68.87
2018-12-13T08:00:31.582Z,68.09
2018-12-13T08:01:34.052Z,68.26
2018-12-13T08:02:36.713Z,68.16
2018-12-13T08:03:39.171Z,68.13
2018-12-13T08:04:41.626Z,67.70
2018-12-13T08:05:44.067Z,67.82
2018-12-13T08:06:46.509Z,67.77
2018-12-13T08:07:48.954Z,67.93
2018-12-13T08:08:51.409Z,67.83
2018-12-13T08:09:53.851Z,68.05
2018-12-13T08:10:56.293Z,67.77
2018-12-13T08:11:58.745Z,67.91
2018-12-13T08:13:01.189Z,67.81
2018-12-13T08:14:03.751Z,67.74
2018-12-13T08:15:06.393Z,67.09
2018-12-13T08:16:08.843Z,67.16
2018-12-13T08:17:11.284Z,67.43
2018-12-13T08:18:13.782Z,67.13
2018-12-13T08:19:16.235Z,67.69
2018-12-13T08:20:18.701Z,67.57
2018-12-13T08:21:21.155Z,67.70
2018-12-13T08:22:23.599Z,66.97
2018-12-13T08:23:26.073Z,67.40
2018-12-13T08:24:28.553Z,67.33
2018-12-13T08:25:31.042Z,66.60
2018-12-13T08:26:33.506Z,67.27
2018-12-13T08:27:35.948Z,66.93
2018-12-13T08:28:38.400Z,67.45
2018-12-13T08:29:40.874Z,67.48
2018-12-13T08:30:43.330Z,66.97
2018-12-13T08:31:45.767Z,66.28
2018-12-13T08:32:48.239Z,66.86
2018-12-13T08:33:50.691Z,66.62
2018-12-13T08:34:53.178Z,67.01
2018-12-13T08:35:55.803Z,67.07
2018-12-13T08:36:58.250Z,67.38
2018-12-13T08:38:00.692Z,66.72
2018-12-13T08:39:05.227Z,66.78
2018-12-13T08:40:07.702Z,66.89
2018-12-13T08:41:10.143Z,66.99
2018-12-13T08:42:12.584Z,67.16
2018-12-13T08:43:15.025Z,66.29
2018-12-13T08:44:17.521Z,66.52
2018-12-13T08:45:19.981Z,67.09
2018-12-13T08:46:22.447Z,67.13
2018-12-13T08:47:24.907Z,66.46
2018-12-13T08:48:27.332Z,66.75
2018-12-13T08:49:29.780Z,66.73
2018-12-13T08:50:32.245Z,66.79
2018-12-13T08:51:34.710Z,66.57
2018-12-13T08:52:37.154Z,66.51
2018-12-13T08:53:39.605Z,66.84
2018-12-13T08:54:42.063Z,66.61
2018-12-13T08:55:44.524Z,66.11
2018-12-13T08:56:46.978Z,66.19
2018-12-13T08:57:49.419Z,66.33
2018-12-13T08:58:51.855Z,65.72
2018-12-13T08:59:54.300Z,65.87
2018-12-13T09:00:56.756Z,65.52
2018-12-13T09:01:59.219Z,66.08
2018-12-13T09:03:01.871Z,65.59
2018-12-13T09:04:04.310Z,65.59
2018-12-13T09:05:06.742Z,65.27
2018-12-13T09:06:09.187Z,65.82
2018-12-13T09:07:11.670Z,65.59
2018-12-13T09:08:14.117Z,65.16
2018-12-13T09:09:16.555Z,65.94
2018-12-13T09:10:19.004Z,66.16
2018-12-13T09:11:21.468Z,66.24
2018-12-13T09:12:23.922Z,66.05
2018-12-13T09:13:26.389Z,66.58
2018-12-13T09:14:28.862Z,65.86
2018-12-13T09:15:31.300Z,66.44
2018-12-13T09:16:33.753Z,66.29
2018-12-13T09:17:36.214Z,66.21
2018-12-13T09:18:38.651Z,66.30
2018-12-13T09:19:41.106Z,66.60
2018-12-13T09:20:43.554Z,66.11
2018-12-13T09:21:46.011Z,65.78
2018-12-13T09:22:48.468Z,66.05
2018-12-13T09:23:50.907Z,65.86
2018-12-13T09:24:53.353Z,66.58
2018-12-13T09:25:55.796Z,66.27
2018-12-13T09:26:58.256Z,66.54
2018-12-13T09:28:00.722Z,66.13
2018-12-13T09:29:03.177Z,66.05
2018-12-13T09:30:06.236Z,66.56
2018-12-13T09:31:08.680Z,66.05
2018-12-13T09:32:11.135Z,66.46
2018-12-13T09:33:13.574Z,66.27
2018-12-13T09:34:16.020Z,66.33
2018-12-13T09:35:18.464Z,65.96
2018-12-13T09:36:20.899Z,66.17
2018-12-13T09:37:23.356Z,65.92
2018-12-13T09:38:27.293Z,65.35
2018-12-13T09:39:30.082Z,65.10
2018-12-13T09:40:32.515Z,65.89
2018-12-13T09:41:34.959Z,65.73
2018-12-13T09:42:37.434Z,65.82
2018-12-13T09:43:39.921Z,66.15
2018-12-13T09:44:42.351Z,66.15
2018-12-13T09:45:44.817Z,65.67
2018-12-13T09:46:47.256Z,65.32
2018-12-13T09:47:49.715Z,65.55
2018-12-13T09:48:52.176Z,65.33
2018-12-13T09:49:54.638Z,65.29
2018-12-13T09:50:57.171Z,65.54
2018-12-13T09:51:59.701Z,65.25
2018-12-13T09:53:02.153Z,66.00
2018-12-13T09:54:04.615Z,65.22
2018-12-13T09:55:07.068Z,65.81
2018-12-13T09:56:09.516Z,66.04
2018-12-13T09:57:11.960Z,66.04
2018-12-13T09:58:14.419Z,65.75
2018-12-13T09:59:16.880Z,65.53
2018-12-13T10:00:19.319Z,65.86
2018-12-13T10:01:21.777Z,65.78
2018-12-13T10:02:24.275Z,65.29
2018-12-13T10:03:26.724Z,65.37
2018-12-13T10:04:29.180Z,65.28
2018-12-13T10:05:31.619Z,66.11
2018-12-13T10:06:34.052Z,65.97
2018-12-13T10:07:36.495Z,65.79
2018-12-13T10:08:38.950Z,65.71
2018-12-13T10:09:41.413Z,65.62
2018-12-13T10:10:43.952Z,65.50
2018-12-13T10:11:46.407Z,65.28
2018-12-13T10:12:48.854Z,66.03
2018-12-13T10:13:51.367Z,65.84
2018-12-13T10:14:53.832Z,65.20
2018-12-13T10:15:56.303Z,65.40
2018-12-13T10:16:58.754Z,65.50
2018-12-13T10:18:01.233Z,65.71
2018-12-13T10:19:03.776Z,65.65
2018-12-13T10:20:06.503Z,66.13
2018-12-13T10:21:08.954Z,65.37
2018-12-13T10:22:11.943Z,65.86
2018-12-13T10:23:14.601Z,65.45
2018-12-13T10:24:17.071Z,65.02
2018-12-13T10:25:19.507Z,65.43
2018-12-13T10:26:21.973Z,65.48
2018-12-13T10:27:24.423Z,65.40
2018-12-13T10:28:26.876Z,65.51
2018-12-13T10:29:29.375Z,65.39
2018-12-13T10:30:31.926Z,65.05
2018-12-13T10:31:34.369Z,65.28
2018-12-13T10:32:36.811Z,65.67
2018-12-13T10:33:39.247Z,65.76
2018-12-13T10:34:41.796Z,65.23
2018-12-13T10:35:44.284Z,65.63
2018-12-13T10:36:46.728Z,65.19
2018-12-13T10:37:49.308Z,64.49
2018-12-13T10:38:53.201Z,64.51
2018-12-13T10:39:56.055Z,64.57
2018-12-13T10:40:58.500Z,64.88
2018-12-13T10:42:00.939Z,65.01
2018-12-13T10:43:03.387Z,65.08
2018-12-13T10:44:05.824Z,65.09
2018-12-13T10:45:08.305Z,64.62
2018-12-13T10:46:10.845Z,64.92
2018-12-13T10:47:13.287Z,65.13
2018-12-13T10:48:15.737Z,65.05
2018-12-13T10:49:18.213Z,65.22
2018-12-13T10:50:20.678Z,64.46
2018-12-13T10:51:23.181Z,64.73
2018-12-13T10:52:25.637Z,64.86
2018-12-13T10:53:28.080Z,64.75
2018-12-13T10:54:30.607Z,64.80
2018-12-13T10:55:33.066Z,64.57
2018-12-13T10:56:35.563Z,65.00
2018-12-13T10:57:38.095Z,64.66
2018-12-13T10:58:40.540Z,64.69
2018-12-13T10:59:42.987Z,64.74
2018-12-13T11:02:29.971Z,63.77
2018-12-13T11:03:35.261Z,64.49
2018-12-13T11:04:37.715Z,63.82
2018-12-13T11:05:40.158Z,64.06
2018-12-13T11:06:42.653Z,64.28
2018-12-13T11:07:45.087Z,64.27
2018-12-13T11:08:47.540Z,64.38
2018-12-13T11:09:49.982Z,63.85
2018-12-13T11:10:52.512Z,64.17
2018-12-13T11:11:54.975Z,63.85
2018-12-13T11:12:57.418Z,63.59
2018-12-13T11:13:59.860Z,63.42
2018-12-13T11:15:02.303Z,63.35
2018-12-13T11:16:04.774Z,63.13
2018-12-13T11:17:07.240Z,63.57
2018-12-13T11:18:09.708Z,63.26
2018-12-13T11:19:12.159Z,62.95
2018-12-13T11:20:14.603Z,62.87
2018-12-13T11:21:17.508Z,62.69
2018-12-13T11:22:20.150Z,62.67
2018-12-13T11:23:22.600Z,62.94
2018-12-13T11:24:25.049Z,62.74
2018-12-13T11:25:27.501Z,62.79
2018-12-13T11:26:29.963Z,62.97
2018-12-13T11:27:40.479Z,63.18
2018-12-13T11:28:55.081Z,62.94
2018-12-13T11:30:05.483Z,62.66
2018-12-13T11:31:07.972Z,63.10
2018-12-13T11:32:10.439Z,63.02
2018-12-13T11:33:12.996Z,62.70
2018-12-13T11:34:15.456Z,63.17
2018-12-13T11:35:17.903Z,63.35
2018-12-13T11:36:20.545Z,62.47
2018-12-13T11:37:22.994Z,62.60
2018-12-13T11:38:25.487Z,62.82
2018-12-13T11:39:28.002Z,62.84
2018-12-13T11:40:30.826Z,62.28
2018-12-13T11:41:33.290Z,62.46
2018-12-13T11:42:35.748Z,62.36
2018-12-13T11:43:38.306Z,62.19
2018-12-13T11:44:40.739Z,62.12
2018-12-13T11:45:43.187Z,62.09
2018-12-13T11:46:45.655Z,61.04
2018-12-13T11:47:48.110Z,61.83
2018-12-13T11:48:50.834Z,62.17
2018-12-13T11:49:53.296Z,62.01
2018-12-13T11:50:55.768Z,61.65
2018-12-13T11:51:58.210Z,61.81
2018-12-13T11:53:00.664Z,61.69
2018-12-13T11:54:05.698Z,61.82
2018-12-13T11:56:43.994Z,61.38
2018-12-13T11:57:46.439Z,62.07
2018-12-13T11:58:48.895Z,62.02
2018-12-13T11:59:51.338Z,62.30
2018-12-13T12:00:53.778Z,61.43
2018-12-13T12:01:56.220Z,61.66
2018-12-13T12:02:58.660Z,61.74
2018-12-13T12:04:01.528Z,61.58
2018-12-13T12:05:04.766Z,61.33
2018-12-13T12:06:07.280Z,61.54
2018-12-13T12:07:09.738Z,61.60
2018-12-13T12:08:12.208Z,61.55
2018-12-13T12:09:14.679Z,61.74
2018-12-13T12:10:17.214Z,61.98
2018-12-13T12:11:19.688Z,61.45
2018-12-13T12:12:22.149Z,61.14
2018-12-13T12:13:24.611Z,61.06
2018-12-13T12:14:27.090Z,61.64
2018-12-13T12:15:29.627Z,61.38
2018-12-13T12:16:32.068Z,61.61
2018-12-13T12:17:34.512Z,61.52
2018-12-13T12:18:37.078Z,61.38
2018-12-13T12:19:39.738Z,61.26
2018-12-13T12:20:42.199Z,61.36
2018-12-13T12:21:44.647Z,61.28
2018-12-13T12:22:47.100Z,61.15
2018-12-13T12:23:49.544Z,60.80
2018-12-13T12:24:52.024Z,60.50
2018-12-13T12:25:54.496Z,60.47
2018-12-13T12:26:56.961Z,61.01
2018-12-13T12:27:59.403Z,61.22
2018-12-13T12:29:01.864Z,60.85
2018-12-13T12:30:05.359Z,61.37
2018-12-13T12:31:07.795Z,60.99
2018-12-13T12:32:10.358Z,60.55
2018-12-13T12:33:12.798Z,60.22
2018-12-13T12:34:15.255Z,61.04
2018-12-13T12:35:17.719Z,60.47
2018-12-13T12:36:20.182Z,60.44
2018-12-13T12:37:22.660Z,60.82
2018-12-13T12:38:25.175Z,60.85
2018-12-13T12:39:27.612Z,60.47
2018-12-13T12:40:30.063Z,60.81
2018-12-13T12:41:32.510Z,60.64
2018-12-13T12:42:34.947Z,61.03
2018-12-13T12:43:37.402Z,60.78
2018-12-13T12:44:41.233Z,61.20
2018-12-13T12:45:43.695Z,61.20
2018-12-13T12:46:46.159Z,61.36
2018-12-13T12:47:48.592Z,61.28
2018-12-13T12:48:51.039Z,61.62
2018-12-13T12:49:53.514Z,61.82
2018-12-13T12:50:55.968Z,61.48
2018-12-13T12:51:58.422Z,61.25
2018-12-13T12:53:00.857Z,61.29
2018-12-13T12:54:03.388Z,61.36
2018-12-13T12:55:06.032Z,61.63
2018-12-13T12:56:08.541Z,61.00
2018-12-13T12:57:13.355Z,61.25
2018-12-13T12:58:16.118Z,60.98
2018-12-13T12:59:18.599Z,60.87
2018-12-13T13:00:21.040Z,60.84
2018-12-13T13:01:23.818Z,60.69
2018-12-13T13:02:26.557Z,60.83
2018-12-13T13:03:29.945Z,60.84
2018-12-13T13:04:34.462Z,60.96
2018-12-13T13:05:36.923Z,60.49
2018-12-13T13:06:39.428Z,60.76
2018-12-13T13:07:42.623Z,60.63
2018-12-13T13:08:45.803Z,60.62
2018-12-13T13:09:48.337Z,60.78
2018-12-13T13:10:50.801Z,60.61
2018-12-13T13:11:53.383Z,60.70
2018-12-13T13:12:55.841Z,60.74
2018-12-13T13:13:58.959Z,60.45
2018-12-13T13:15:01.561Z,60.35
2018-12-13T13:16:04.035Z,60.68
2018-12-13T13:17:06.632Z,60.78
2018-12-13T13:18:09.179Z,60.67
2018-12-13T13:19:11.997Z,60.55
2018-12-13T13:20:14.510Z,60.39
2018-12-13T13:21:17.047Z,60.57
2018-12-13T13:22:19.665Z,61.02
2018-12-13T13:23:22.153Z,60.66
2018-12-13T13:24:24.608Z,60.58
2018-12-13T13:25:27.584Z,60.93
2018-12-13T13:26:30.076Z,61.06
2018-12-13T13:27:32.615Z,61.05
2018-12-13T13:28:35.112Z,60.92
2018-12-13T13:29:37.543Z,61.32